Time;durP1;ratioP1;P1;durP2;ratioP2;P2;SDS_P1;SDS_P2;PMS_P1;PMS_P2;Temp;Humidity;BMP_temperature;BMP_pressure;BME280_temperature;BME280_humidity;BME280_pressure;Samples;Min_cycle;Max_cycle;Signal;HPM_P1;HPM_P2
2023/04/17 00:01:13;;;;;;;15.27;12.73;;;;;;;8.64;80.45;100742.81;5006617;28;20220;-60
2023/04/17 00:03:41;;;;;;;17.47;13.00;;;;;;;8.61;80.37;100740.22;5009394;28;20214;-62
2023/04/17 00:06:12;;;;;;;15.83;12.97;;;;;;;8.57;80.31;100734.19;5011221;28;20285;-62
2023/04/17 00:08:42;;;;;;;14.77;12.53;;;;;;;8.55;80.58;100733.34;5008951;28;20208;-61
2023/04/17 00:11:10;;;;;;;16.10;13.17;;;;;;;8.55;80.08;100737.63;5008846;28;20269;-63
2023/04/17 00:13:38;;;;;;;16.73;12.97;;;;;;;8.51;81.13;100731.59;5010440;28;20211;-62
2023/04/17 00:16:09;;;;;;;16.23;12.87;;;;;;;8.48;80.92;100721.28;5005210;28;20239;-61
2023/04/17 00:18:37;;;;;;;17.20;13.27;;;;;;;8.50;80.20;100729.84;5007938;28;20571;-61
2023/04/17 00:21:05;;;;;;;17.70;13.73;;;;;;;8.51;80.70;100730.75;5008529;28;20207;-62
2023/04/17 00:23:34;;;;;;;14.90;13.23;;;;;;;8.52;80.77;100730.75;5008280;28;20238;-61
2023/04/17 00:26:02;;;;;;;16.23;13.70;;;;;;;8.58;80.99;100733.38;5007778;28;20211;-61
2023/04/17 00:28:30;;;;;;;17.60;13.67;;;;;;;8.61;81.09;100738.50;5007582;28;20203;-60
2023/04/17 00:30:58;;;;;;;17.77;14.23;;;;;;;8.60;80.75;100736.78;5010694;28;20203;-61
2023/04/17 00:33:26;;;;;;;15.70;12.80;;;;;;;8.60;80.82;100736.78;5003064;28;20219;-60
2023/04/17 00:35:54;;;;;;;17.47;14.00;;;;;;;8.61;80.55;100735.94;5008881;28;20635;-62
2023/04/17 00:38:22;;;;;;;17.47;14.13;;;;;;;8.55;80.31;100727.34;5008179;28;20257;-61
2023/04/17 00:40:51;;;;;;;15.60;13.10;;;;;;;8.64;79.96;100738.53;5008150;28;20748;-62
2023/04/17 00:43:19;;;;;;;16.00;13.37;;;;;;;8.61;80.30;100743.63;5010240;28;20670;-60
2023/04/17 00:45:47;;;;;;;15.40;13.73;;;;;;;8.61;80.43;100748.78;5010063;28;20239;-62
2023/04/17 00:48:16;;;;;;;16.80;14.23;;;;;;;8.54;80.56;100741.88;5009534;28;20298;-61
2023/04/17 00:50:44;;;;;;;17.40;13.13;;;;;;;8.55;80.83;100741.03;5007750;28;20614;-62
2023/04/17 00:53:13;;;;;;;16.90;14.20;;;;;;;8.53;80.76;100740.16;5007224;28;20650;-64
2023/04/17 00:55:43;;;;;;;15.93;13.23;;;;;;;8.52;80.72;100746.16;5010430;28;20203;-62
2023/04/17 00:58:13;;;;;;;19.23;13.30;;;;;;;8.50;81.72;100752.13;5010227;28;20254;-62
2023/04/17 01:00:41;;;;;;;16.27;14.13;;;;;;;8.50;81.07;100757.25;5009873;28;20728;-61
2023/04/17 01:03:10;;;;;;;16.57;13.63;;;;;;;8.48;80.92;100757.25;5008924;28;20211;-60
2023/04/17 01:05:38;;;;;;;16.20;13.57;;;;;;;8.47;80.55;100750.41;5009434;28;20311;-61
2023/04/17 01:08:06;;;;;;;17.53;14.10;;;;;;;8.44;80.37;100752.94;5006984;28;20207;-61
2023/04/17 01:10:34;;;;;;;17.77;13.70;;;;;;;8.45;81.10;100759.78;5005529;28;20257;-61
2023/04/17 01:13:02;;;;;;;17.33;13.13;;;;;;;8.44;80.47;100756.34;5008930;28;20199;-61
2023/04/17 01:15:32;;;;;;;18.27;13.80;;;;;;;8.45;80.77;100752.06;5008086;28;20207;-60
2023/04/17 01:18:00;;;;;;;18.37;14.00;;;;;;;8.42;81.10;100754.63;5010244;28;20680;-61
2023/04/17 01:20:29;;;;;;;16.97;13.17;;;;;;;8.43;81.57;100753.75;5008907;28;20215;-61
2023/04/17 01:22:58;;;;;;;15.43;13.20;;;;;;;8.43;81.65;100751.19;5005185;28;20397;-61
2023/04/17 01:25:28;;;;;;;16.87;14.23;;;;;;;8.44;81.25;100753.78;4998458;28;20238;-62
2023/04/17 01:27:56;;;;;;;16.30;13.07;;;;;;;8.40;81.68;100754.63;5008798;28;20677;-61
2023/04/17 01:30:24;;;;;;;14.93;12.77;;;;;;;8.43;81.97;100764.91;5008327;28;20203;-63
2023/04/17 01:32:54;;;;;;;17.27;13.57;;;;;;;8.40;81.11;100762.31;5007106;28;20246;-63
2023/04/17 01:35:22;;;;;;;14.43;12.63;;;;;;;8.41;81.42;100758.91;5010261;28;20251;-61
2023/04/17 01:37:51;;;;;;;18.17;13.57;;;;;;;8.44;81.86;100760.63;5008327;28;20200;-64
2023/04/17 01:40:18;;;;;;;18.17;14.03;;;;;;;8.48;81.38;100757.25;5005010;28;20214;-64
2023/04/17 01:42:48;;;;;;;18.20;13.70;;;;;;;8.48;81.00;100757.25;5007242;28;20599;-66
2023/04/17 01:45:16;;;;;;;15.80;13.20;;;;;;;8.48;81.78;100754.69;5012426;28;20650;-62
2023/04/17 01:47:44;;;;;;;16.97;13.80;;;;;;;8.48;81.59;100754.69;5013083;28;20215;-61
2023/04/17 01:50:13;;;;;;;17.93;13.77;;;;;;;8.49;81.22;100763.25;5010059;28;20289;-61
2023/04/17 01:52:41;;;;;;;16.07;13.33;;;;;;;8.48;81.46;100757.25;5011220;28;20208;-69
2023/04/17 01:55:09;;;;;;;14.63;13.03;;;;;;;8.54;82.19;100761.56;5010814;28;20203;-62
2023/04/17 01:57:37;;;;;;;16.87;13.40;;;;;;;8.55;80.67;100764.16;5012796;28;20206;-62
2023/04/17 02:00:09;;;;;;;16.60;12.90;;;;;;;8.54;81.86;100764.97;5010001;28;20203;-61
2023/04/17 02:02:37;;;;;;;18.40;13.37;;;;;;;8.53;81.02;100767.56;5012707;28;20249;-61
2023/04/17 02:05:06;;;;;;;17.20;13.87;;;;;;;8.51;80.77;100764.13;5012333;28;20211;-61
2023/04/17 02:07:34;;;;;;;14.63;12.93;;;;;;;8.49;81.23;100764.09;5010250;28;20304;-62
2023/04/17 02:10:02;;;;;;;17.97;13.00;;;;;;;8.43;81.58;100758.91;5009545;28;20217;-60
2023/04/17 02:12:30;;;;;;;17.43;13.27;;;;;;;8.45;81.95;100763.22;5008921;28;20199;-60
2023/04/17 02:14:59;;;;;;;16.97;12.87;;;;;;;8.48;81.71;100767.53;5009393;28;20234;-66
2023/04/17 02:17:29;;;;;;;16.57;13.77;;;;;;;8.49;81.48;100770.94;5009552;28;20208;-62
2023/04/17 02:19:57;;;;;;;19.07;13.33;;;;;;;8.49;82.40;100768.38;5010659;28;20203;-61
2023/04/17 02:22:25;;;;;;;14.60;12.70;;;;;;;8.48;81.13;100764.94;5008868;28;20638;-61
2023/04/17 02:24:53;;;;;;;18.07;12.90;;;;;;;8.51;81.70;100767.56;5011083;28;20207;-61
2023/04/17 02:27:21;;;;;;;15.70;13.00;;;;;;;8.54;81.53;100767.56;5012417;28;20219;-61
2023/04/17 02:29:48;;;;;;;16.70;13.37;;;;;;;8.55;81.53;100764.16;5007023;28;20267;-62
2023/04/17 02:32:17;;;;;;;16.80;13.53;;;;;;;8.55;81.22;100763.31;5009483;28;20289;-61
2023/04/17 02:34:46;;;;;;;16.37;12.93;;;;;;;8.57;81.22;100775.28;5010399;28;20291;-62
2023/04/17 02:37:14;;;;;;;15.00;12.67;;;;;;;8.56;81.57;100777.84;5011515;28;20258;-62
2023/04/17 02:39:42;;;;;;;16.97;13.60;;;;;;;8.53;81.18;100776.13;5010088;28;20642;-62
2023/04/17 02:42:11;;;;;;;16.63;13.63;;;;;;;8.52;81.44;100774.41;5009372;28;20215;-63
2023/04/17 02:44:39;;;;;;;15.10;13.00;;;;;;;8.50;80.84;100772.66;5012114;28;20218;-60
2023/04/17 02:47:07;;;;;;;16.10;12.57;;;;;;;8.46;81.59;100775.19;5012030;28;20251;-60
2023/04/17 02:49:35;;;;;;;17.23;13.67;;;;;;;8.45;81.79;100775.19;5011740;28;20542;-61
2023/04/17 02:52:05;;;;;;;15.00;12.97;;;;;;;8.40;82.27;100772.59;5009838;28;20195;-61
2023/04/17 02:54:33;;;;;;;17.87;13.03;;;;;;;8.40;82.78;100774.31;5011224;28;20204;-62
2023/04/17 02:57:01;;;;;;;16.60;13.70;;;;;;;8.36;82.76;100782.78;5012592;28;20726;-63
2023/04/17 02:59:29;;;;;;;17.17;13.53;;;;;;;8.32;81.81;100776.78;5011210;28;20207;-62
2023/04/17 03:01:58;;;;;;;13.90;12.40;;;;;;;8.29;83.13;100775.88;5010584;28;20211;-60
2023/04/17 03:04:27;;;;;;;14.97;12.73;;;;;;;8.27;82.22;100772.41;5010508;28;20525;-61
2023/04/17 03:06:55;;;;;;;16.90;13.03;;;;;;;8.26;82.79;100778.41;5010192;28;20682;-62
2023/04/17 03:09:24;;;;;;;16.20;13.00;;;;;;;8.27;82.21;100785.25;5011215;28;20554;-59
2023/04/17 03:11:52;;;;;;;18.23;14.43;;;;;;;8.27;83.16;100785.25;5008632;28;20214;-62
2023/04/17 03:14:20;;;;;;;17.63;13.27;;;;;;;8.27;82.85;100785.25;5011169;28;20210;-61
2023/04/17 03:16:48;;;;;;;16.67;13.30;;;;;;;8.28;83.40;100782.69;5004511;28;20207;-62
2023/04/17 03:19:16;;;;;;;16.17;13.20;;;;;;;8.31;82.17;100789.56;5007861;28;20219;-61
2023/04/17 03:21:46;;;;;;;15.47;12.93;;;;;;;8.36;82.34;100795.63;5005758;28;20202;-60
2023/04/17 03:24:14;;;;;;;17.40;12.93;;;;;;;8.41;82.61;100796.56;5010714;28;20233;-65
2023/04/17 03:26:43;;;;;;;15.60;13.17;;;;;;;8.49;82.67;100800.06;5010514;28;20210;-61
2023/04/17 03:29:11;;;;;;;17.80;13.77;;;;;;;8.54;81.94;100802.66;5009317;28;20242;-61
2023/04/17 03:31:39;;;;;;;19.63;12.80;;;;;;;8.56;81.99;100796.69;5007869;28;20618;-62
2023/04/17 03:34:07;;;;;;;18.33;13.93;;;;;;;8.60;82.59;100798.44;5009444;28;20302;-60
2023/04/17 03:36:35;;;;;;;18.67;13.20;;;;;;;8.63;81.51;100802.75;5007746;28;20210;-61
2023/04/17 03:39:03;;;;;;;15.03;13.27;;;;;;;8.64;81.67;100807.88;5007929;28;20199;-62
2023/04/17 03:41:31;;;;;;;16.60;13.83;;;;;;;8.64;80.98;100804.47;5008958;28;20234;-60
2023/04/17 03:44:00;;;;;;;19.03;13.70;;;;;;;8.63;80.97;100806.19;5008401;28;20207;-62
2023/04/17 03:46:28;;;;;;;17.27;13.40;;;;;;;8.63;81.26;100808.75;5008009;28;20269;-62
2023/04/17 03:48:56;;;;;;;18.17;13.83;;;;;;;8.62;81.00;100804.47;5008517;28;20565;-62
2023/04/17 03:51:25;;;;;;;16.67;12.93;;;;;;;8.64;80.71;100813.03;5010447;28;20243;-62
2023/04/17 03:53:53;;;;;;;17.03;13.40;;;;;;;8.66;81.24;100816.47;5010357;28;20298;-69
2023/04/17 03:56:21;;;;;;;16.00;13.13;;;;;;;8.68;80.12;100819.91;5008874;28;20215;-62
2023/04/17 03:58:49;;;;;;;15.13;13.53;;;;;;;8.69;80.87;100819.09;5008939;28;20709;-61
2023/04/17 04:01:18;;;;;;;16.37;13.40;;;;;;;8.71;80.99;100822.50;5010878;28;20199;-63
2023/04/17 04:03:46;;;;;;;18.50;13.17;;;;;;;8.73;80.81;100817.41;5010817;28;20207;-62
2023/04/17 04:06:19;;;;;;;20.60;12.90;;;;;;;8.75;80.20;100825.09;5003411;28;20209;-62
2023/04/17 04:08:47;;;;;;;14.93;12.53;;;;;;;8.74;79.99;100823.41;5009937;28;20219;-62
2023/04/17 04:11:15;;;;;;;15.90;13.30;;;;;;;8.71;80.61;100827.66;5006291;28;20204;-62
2023/04/17 04:13:43;;;;;;;16.73;13.30;;;;;;;8.69;80.51;100839.63;5004767;28;20211;-63
2023/04/17 04:16:10;;;;;;;15.77;12.90;;;;;;;8.65;80.86;100843.03;5008793;28;20239;-65
2023/04/17 04:18:40;;;;;;;17.80;13.47;;;;;;;8.65;80.64;100845.59;5006740;28;20634;-60
2023/04/17 04:21:08;;;;;;;15.67;13.23;;;;;;;8.62;80.58;100844.72;5007104;28;20257;-60
2023/04/17 04:23:39;;;;;;;16.87;13.33;;;;;;;8.61;80.81;100842.97;5006780;28;20785;-64
2023/04/17 04:26:07;;;;;;;17.00;13.10;;;;;;;8.58;80.46;100843.81;5009213;28;20207;-61
2023/04/17 04:28:34;;;;;;;18.17;13.60;;;;;;;8.57;81.09;100848.91;5008646;28;20239;-62
2023/04/17 04:31:02;;;;;;;17.30;13.23;;;;;;;8.56;80.55;100855.78;5005195;28;20257;-62
2023/04/17 04:33:30;;;;;;;16.10;12.60;;;;;;;8.55;81.03;100848.91;5002069;28;20210;-61
2023/04/17 04:36:00;;;;;;;15.60;12.80;;;;;;;8.57;81.38;100846.34;5000333;28;20207;-61
2023/04/17 04:38:31;;;;;;;15.90;12.27;;;;;;;8.55;81.23;100853.19;5012600;28;20663;-61
2023/04/17 04:41:04;;;;;;;15.00;12.40;;;;;;;8.60;81.29;100859.22;5010632;28;20696;-61
2023/04/17 04:43:34;;;;;;;14.50;12.17;;;;;;;8.60;81.29;100856.66;5003924;28;20211;-61
2023/04/17 04:46:02;;;;;;;13.67;11.90;;;;;;;8.63;80.83;100864.41;5010040;28;20242;-62
2023/04/17 04:48:30;;;;;;;17.70;13.40;;;;;;;8.61;81.46;100859.22;5012316;28;20690;-61
2023/04/17 04:50:58;;;;;;;18.17;12.57;;;;;;;8.63;80.30;100865.25;5010081;28;20662;-62
2023/04/17 04:53:27;;;;;;;19.33;12.70;;;;;;;8.65;80.20;100863.59;5011665;28;20207;-63
2023/04/17 04:55:55;;;;;;;17.23;13.17;;;;;;;8.67;81.18;100872.16;5008298;28;20713;-60
2023/04/17 04:58:23;;;;;;;17.87;13.10;;;;;;;8.72;80.74;100869.59;5010074;28;20254;-62
2023/04/17 05:00:51;;;;;;;16.17;12.63;;;;;;;8.73;80.58;100867.91;5004198;28;20203;-62
2023/04/17 05:03:19;;;;;;;18.93;12.57;;;;;;;8.79;80.66;100865.41;5008114;28;20211;-61
2023/04/17 05:05:49;;;;;;;19.50;13.60;;;;;;;8.82;79.47;100858.56;5011538;28;20584;-67
2023/04/17 05:08:17;;;;;;;15.60;11.97;;;;;;;8.87;80.61;100864.63;5001753;28;20237;-70
2023/04/17 05:10:46;;;;;;;14.90;11.90;;;;;;;8.90;80.72;100863.78;5006180;28;20604;-60
2023/04/17 05:13:14;;;;;;;14.63;12.60;;;;;;;8.94;80.07;100855.25;5008062;28;20202;-60
2023/04/17 05:15:42;;;;;;;16.23;12.60;;;;;;;8.99;80.28;100866.44;5003065;28;20195;-60
2023/04/17 05:18:10;;;;;;;16.60;11.73;;;;;;;9.01;79.62;100867.28;5003187;28;20206;-59
2023/04/17 05:20:38;;;;;;;15.27;12.07;;;;;;;9.03;79.44;100875.91;5006628;28;20264;-63
2023/04/17 05:23:05;;;;;;;14.87;11.80;;;;;;;9.02;78.69;100869.03;5006464;28;20305;-59
2023/04/17 05:25:33;;;;;;;17.20;12.60;;;;;;;9.01;79.14;100871.59;5004924;28;20207;-60
2023/04/17 05:28:03;;;;;;;17.30;13.03;;;;;;;9.00;79.25;100869.88;5008242;28;20203;-59
2023/04/17 05:30:30;;;;;;;16.67;12.00;;;;;;;9.00;79.42;100869.88;5008127;28;20297;-61
2023/04/17 05:32:59;;;;;;;15.73;12.37;;;;;;;9.04;78.92;100871.59;5009277;28;20242;-60
2023/04/17 05:35:27;;;;;;;20.30;15.30;;;;;;;9.05;78.96;100869.03;5000537;28;20639;-62
2023/04/17 05:37:55;;;;;;;17.40;12.10;;;;;;;9.08;78.81;100873.34;5007096;28;20253;-60
2023/04/17 05:40:23;;;;;;;15.57;12.50;;;;;;;9.06;78.99;100877.63;5006480;28;20199;-60
2023/04/17 05:42:51;;;;;;;14.87;12.30;;;;;;;9.06;78.90;100880.22;5000194;28;20258;-60
2023/04/17 05:45:21;;;;;;;14.77;12.63;;;;;;;9.07;79.00;100877.63;5005597;28;20219;-61
2023/04/17 05:47:52;;;;;;;15.40;12.17;;;;;;;9.16;79.69;100877.69;4998193;28;20211;-61
2023/04/17 05:50:20;;;;;;;16.77;12.43;;;;;;;9.32;78.59;100870.97;5001285;28;20215;-62
2023/04/17 05:52:48;;;;;;;19.63;12.73;;;;;;;9.50;78.32;100865.09;5001934;28;20571;-61
2023/04/17 05:55:16;;;;;;;16.67;12.07;;;;;;;9.72;77.50;100867.75;5006155;28;20211;-61
2023/04/17 05:57:43;;;;;;;17.80;13.97;;;;;;;9.78;76.69;100878.09;5004266;28;20279;-60
2023/04/17 06:00:12;;;;;;;15.97;12.80;;;;;;;9.68;76.50;100883.19;5000665;28;20207;-61
2023/04/17 06:02:42;;;;;;;16.87;11.73;;;;;;;9.59;76.80;100877.13;5004001;28;20203;-61
2023/04/17 06:05:10;;;;;;;16.90;11.97;;;;;;;9.52;76.27;100881.38;5001581;28;20269;-61
2023/04/17 06:07:39;;;;;;;16.07;12.73;;;;;;;9.43;77.32;100887.34;5004418;28;20200;-64
2023/04/17 06:10:08;;;;;;;15.73;13.27;;;;;;;9.34;77.13;100881.25;5005047;28;20208;-62
2023/04/17 06:12:36;;;;;;;15.87;12.63;;;;;;;9.34;77.47;100883.81;5004705;28;20242;-62
2023/04/17 06:15:05;;;;;;;18.47;13.33;;;;;;;9.39;77.93;100889.88;5010765;28;20568;-63
2023/04/17 06:17:35;;;;;;;15.83;12.47;;;;;;;9.49;77.92;100881.34;5007419;28;20203;-61
2023/04/17 06:20:09;;;;;;;15.30;12.90;;;;;;;9.63;77.94;100887.44;5010439;28;20206;-61
2023/04/17 06:22:37;;;;;;;17.83;13.87;;;;;;;9.75;76.58;100884.06;5014305;28;20247;-62
2023/04/17 06:25:07;;;;;;;14.83;12.20;;;;;;;9.86;76.94;100892.72;5012286;28;20235;-61
2023/04/17 06:27:34;;;;;;;15.63;12.67;;;;;;;9.97;76.02;100890.19;5010345;28;20203;-62
2023/04/17 06:30:05;;;;;;;16.30;13.27;;;;;;;10.01;75.83;100886.78;5006306;28;20225;-65
2023/04/17 06:32:33;;;;;;;16.13;13.43;;;;;;;10.01;75.49;100885.91;5013806;28;20203;-64
2023/04/17 06:35:01;;;;;;;15.57;13.50;;;;;;;10.05;75.91;100892.78;5011392;28;20569;-61
2023/04/17 06:37:30;;;;;;;15.77;12.53;;;;;;;10.07;75.80;100886.81;5011778;28;20654;-60
2023/04/17 06:39:58;;;;;;;16.30;13.23;;;;;;;10.07;75.76;100891.94;5009767;28;20234;-62
2023/04/17 06:42:26;;;;;;;17.17;13.00;;;;;;;10.06;75.51;100890.25;5008979;28;20246;-62
2023/04/17 06:44:55;;;;;;;17.73;14.17;;;;;;;10.13;74.87;100896.28;5010068;28;20204;-57
2023/04/17 06:47:22;;;;;;;16.23;13.33;;;;;;;10.28;75.38;100892.94;5010544;28;20214;-61
2023/04/17 06:49:51;;;;;;;15.53;12.50;;;;;;;10.53;75.01;100899.88;5021688;28;20249;-56
2023/04/17 06:52:19;;;;;;;17.20;13.60;;;;;;;10.83;74.29;100893.06;5016338;28;20654;-58
2023/04/17 06:54:48;;;;;;;16.07;12.97;;;;;;;11.10;72.94;100898.22;5011660;28;20199;-58
2023/04/17 06:57:16;;;;;;;13.93;12.23;;;;;;;11.30;71.93;100897.34;5008828;28;20212;-62
2023/04/17 06:59:44;;;;;;;16.07;11.80;;;;;;;11.48;71.52;100894.72;5003366;28;20436;-56
2023/04/17 07:02:12;;;;;;;16.73;13.03;;;;;;;11.64;70.34;100905.91;5005519;28;20199;-62
2023/04/17 07:04:40;;;;;;;15.60;12.03;;;;;;;11.68;69.81;100899.88;5013301;28;20456;-57
2023/04/17 07:07:08;;;;;;;14.30;11.77;;;;;;;11.68;69.76;100904.19;5006443;28;20230;-59
2023/04/17 07:09:36;;;;;;;13.57;12.17;;;;;;;11.71;69.90;100892.13;4997545;28;20263;-58
2023/04/17 07:12:06;;;;;;;15.73;12.40;;;;;;;11.73;69.10;100913.63;5003478;28;20199;-57
2023/04/17 07:14:34;;;;;;;14.37;12.50;;;;;;;11.63;69.82;100916.22;5010921;28;20223;-59
2023/04/17 07:17:03;;;;;;;14.33;12.10;;;;;;;11.54;70.27;100911.94;5005305;28;20298;-59
2023/04/17 07:19:30;;;;;;;15.00;12.33;;;;;;;11.39;70.48;100917.97;5009864;28;20247;-58
2023/04/17 07:21:58;;;;;;;14.10;12.60;;;;;;;11.37;71.01;100924.84;5009867;28;20203;-60
2023/04/17 07:24:26;;;;;;;17.43;12.67;;;;;;;11.42;70.96;100919.72;5012764;28;20320;-58
2023/04/17 07:26:55;;;;;;;18.43;13.03;;;;;;;11.42;70.91;100925.72;5012288;28;20203;-60
2023/04/17 07:29:24;;;;;;;18.20;11.90;;;;;;;11.35;71.02;100931.75;5012846;28;20242;-59
2023/04/17 07:31:52;;;;;;;15.60;12.87;;;;;;;11.42;71.19;100927.44;5011974;28;20219;-59
2023/04/17 07:34:20;;;;;;;16.70;13.43;;;;;;;11.49;71.37;100930.03;5012547;28;20210;-61
2023/04/17 07:36:50;;;;;;;13.30;11.27;;;;;;;11.63;70.62;100927.41;5013054;28;20215;-58
2023/04/17 07:39:18;;;;;;;15.23;12.20;;;;;;;11.65;70.31;100930.00;5004086;28;20234;-60
2023/04/17 07:41:46;;;;;;;14.77;11.47;;;;;;;11.67;70.49;100930.84;5013077;28;20207;-61
2023/04/17 07:44:14;;;;;;;18.63;12.30;;;;;;;11.72;70.62;100926.53;5007591;28;20199;-64
2023/04/17 07:46:44;;;;;;;12.20;11.00;;;;;;;11.74;70.35;100933.41;5009078;28;20226;-60
2023/04/17 07:49:12;;;;;;;15.17;11.23;;;;;;;11.76;70.09;100933.41;5011292;28;20216;-58
2023/04/17 07:51:41;;;;;;;13.63;11.27;;;;;;;11.82;70.51;100933.41;5008180;28;20233;-59
2023/04/17 07:54:09;;;;;;;15.53;10.77;;;;;;;11.99;69.56;100935.97;5007512;28;20342;-58
2023/04/17 07:56:37;;;;;;;14.93;11.37;;;;;;;12.04;69.98;100927.34;5009913;28;20262;-60
2023/04/17 07:59:05;;;;;;;14.43;11.13;;;;;;;12.19;69.05;100935.91;5007364;28;20720;-61
2023/04/17 08:01:33;;;;;;;13.80;11.57;;;;;;;12.27;68.73;100936.72;5008659;28;20238;-58
2023/04/17 08:04:02;;;;;;;12.43;10.43;;;;;;;12.44;68.30;100944.38;5009267;28;20203;-59
2023/04/17 08:06:31;;;;;;;12.00;10.00;;;;;;;12.42;68.11;100941.81;5010660;28;20680;-57
2023/04/17 08:09:01;;;;;;;11.53;10.33;;;;;;;12.37;68.68;100941.00;5009772;28;20234;-59
2023/04/17 08:11:28;;;;;;;11.70;10.50;;;;;;;12.66;67.96;100942.56;5011184;28;20246;-58
2023/04/17 08:13:56;;;;;;;12.80;11.23;;;;;;;12.77;67.33;100948.53;5010083;28;20211;-58
2023/04/17 08:16:24;;;;;;;13.03;10.63;;;;;;;12.75;67.49;100948.53;5010990;28;20199;-57
2023/04/17 08:18:52;;;;;;;13.93;9.80;;;;;;;12.69;67.45;100952.88;5011841;28;20226;-58
2023/04/17 08:21:21;;;;;;;12.53;10.00;;;;;;;12.56;67.40;100949.53;5011259;28;20273;-61
2023/04/17 08:23:49;;;;;;;14.33;10.67;;;;;;;12.47;67.54;100955.56;5010082;28;20235;-59
2023/04/17 08:26:19;;;;;;;10.93;9.83;;;;;;;12.48;67.93;100959.91;5010908;28;20211;-59
2023/04/17 08:28:47;;;;;;;12.30;9.90;;;;;;;12.52;68.13;100951.25;5007089;28;20199;-60
2023/04/17 08:31:15;;;;;;;12.40;10.27;;;;;;;13.16;68.08;100944.81;5011113;28;20753;-58
2023/04/17 08:33:44;;;;;;;10.17;9.00;;;;;;;14.29;65.24;100949.78;5010641;28;20212;-61
2023/04/17 08:36:12;;;;;;;10.40;9.30;;;;;;;14.60;62.23;100950.25;5011291;28;20203;-59
2023/04/17 08:39:10;;;;;;;11.97;9.47;;;;;;;14.37;61.39;100953.97;5009619;28;20199;-58
2023/04/17 08:41:59;;;;;;;10.80;9.23;;;;;;;13.94;62.34;100966.56;5010676;28;20209;-58
2023/04/17 08:44:27;;;;;;;11.97;9.87;;;;;;;13.56;63.54;100966.97;5011172;28;20621;-59
2023/04/17 08:46:57;;;;;;;12.97;9.43;;;;;;;13.25;64.47;100960.28;5011402;28;20203;-61
2023/04/17 08:49:25;;;;;;;12.83;10.10;;;;;;;13.18;65.54;100966.38;5011270;28;20215;-61
2023/04/17 08:51:53;;;;;;;13.30;9.93;;;;;;;13.45;65.70;100961.88;5011568;28;20277;-59
2023/04/17 08:54:22;;;;;;;12.17;10.87;;;;;;;13.59;64.39;100961.75;5011187;28;20213;-60
2023/04/17 08:56:50;;;;;;;11.47;10.23;;;;;;;13.61;64.04;100970.34;5011581;28;20725;-59
2023/04/17 08:59:18;;;;;;;11.97;10.20;;;;;;;13.80;64.00;100964.13;5011188;28;20215;-57
2023/04/17 09:02:05;;;;;;;12.30;10.13;;;;;;;14.16;63.06;100969.78;5007863;28;20199;-59
2023/04/17 09:04:40;;;;;;;12.17;9.33;;;;;;;16.25;60.72;100963.06;5008744;28;20207;-59
2023/04/17 09:07:10;;;;;;;11.37;9.40;;;;;;;18.79;52.54;100947.97;5009431;28;20213;-59
2023/04/17 09:09:50;;;;;;;11.10;9.65;;;;;;;20.25;47.06;100954.34;5010131;28;20207;-60
2023/04/17 09:12:18;;;;;;;10.68;9.00;;;;;;;21.22;43.81;100944.44;5010174;28;20211;-57
2023/04/17 09:14:46;;;;;;;12.90;8.95;;;;;;;21.60;43.48;100952.47;5004431;28;20548;-61
2023/04/17 09:17:16;;;;;;;10.27;9.18;;;;;;;21.01;41.12;100953.16;5009348;28;20262;-60
2023/04/17 09:20:05;;;;;;;10.10;8.35;;;;;;;19.15;45.02;100964.25;5008731;28;20204;-58
2023/04/17 09:22:34;;;;;;;11.10;8.90;;;;;;;18.07;48.68;100971.78;5011005;28;20812;-61
2023/04/17 09:25:04;;;;;;;10.60;9.50;;;;;;;17.54;49.94;100975.78;5009265;28;20749;-60
2023/04/17 09:27:32;;;;;;;10.57;9.48;;;;;;;16.97;51.32;100965.88;5011092;28;20221;-59
2023/04/17 09:30:01;;;;;;;10.25;9.25;;;;;;;16.38;53.21;100980.13;5008656;28;20250;-57
2023/04/17 09:32:30;;;;;;;10.63;9.18;;;;;;;15.89;54.93;100985.44;5009496;28;20684;-58
2023/04/17 09:35:00;;;;;;;12.27;9.48;;;;;;;15.16;56.23;100984.91;5008300;28;20203;-58
2023/04/17 09:37:48;;;;;;;16.98;10.93;;;;;;;14.60;58.96;100986.56;5008686;28;20195;-58
2023/04/17 09:40:17;;;;;;;14.33;9.67;;;;;;;14.25;60.37;100987.84;5002434;28;20207;-59
2023/04/17 09:42:59;;;;;;;13.73;10.73;;;;;;;14.02;61.18;100988.91;5008941;28;20199;-60
2023/04/17 09:45:34;;;;;;;12.03;9.70;;;;;;;14.01;61.69;100982.03;5009987;28;20207;-58
2023/04/17 09:48:05;;;;;;;14.37;10.30;;;;;;;14.69;60.52;100979.53;5010350;28;20682;-59
2023/04/17 09:50:34;;;;;;;12.03;9.63;;;;;;;16.45;58.59;100978.25;5010595;28;20327;-59
2023/04/17 09:53:06;;;;;;;9.47;8.33;;;;;;;19.20;51.28;100962.31;5010461;28;20202;-57
2023/04/17 09:55:36;;;;;;;11.45;9.63;;;;;;;21.34;44.51;100957.97;5008633;28;20630;-57
2023/04/17 09:58:06;;;;;;;10.68;8.82;;;;;;;22.67;41.20;100949.44;5014538;28;20674;-60
2023/04/17 10:00:36;;;;;;;9.82;8.90;;;;;;;22.32;38.66;100956.34;5012906;28;20211;-58
2023/04/17 10:03:06;;;;;;;9.55;8.55;;;;;;;21.47;40.35;100964.44;5014584;28;20554;-59
2023/04/17 10:05:35;;;;;;;12.20;9.50;;;;;;;21.15;41.25;100963.09;5014728;28;20686;-57
2023/04/17 10:08:04;;;;;;;10.32;8.98;;;;;;;20.32;41.91;100966.28;5014747;28;20258;-58
2023/04/17 10:10:36;;;;;;;9.45;8.55;;;;;;;19.52;43.97;100969.09;5014480;28;20199;-58
2023/04/17 10:13:08;;;;;;;10.80;9.05;;;;;;;18.21;46.89;100976.59;5011170;28;20219;-57
2023/04/17 10:15:36;;;;;;;10.85;8.70;;;;;;;17.29;49.70;100970.31;5004945;28;20211;-58
2023/04/17 10:18:22;;;;;;;11.43;8.73;;;;;;;16.52;52.03;100979.00;5013989;28;20221;-58
2023/04/17 10:20:52;;;;;;;10.27;9.27;;;;;;;16.06;53.64;100978.19;5014151;28;20207;-58
2023/04/17 10:23:30;;;;;;;15.63;9.93;;;;;;;15.75;54.93;100975.28;5012065;28;20307;-58
2023/04/17 10:26:40;;;;;;;12.55;9.48;;;;;;;15.41;56.07;100983.63;5014023;28;20615;-58
2023/04/17 10:29:11;;;;;;;10.60;9.50;;;;;;;15.19;56.97;100974.47;5011944;28;20223;-59
2023/04/17 10:32:19;;;;;;;11.55;9.13;;;;;;;15.07;57.65;100982.47;5010352;28;20217;-57
2023/04/17 10:34:47;;;;;;;10.13;8.48;;;;;;;15.07;57.95;100979.84;4999378;28;20211;-57
2023/04/17 10:37:15;;;;;;;12.40;8.93;;;;;;;15.16;58.02;100971.91;5009183;28;20254;-58
2023/04/17 10:39:51;;;;;;;10.73;9.15;;;;;;;15.23;57.76;100981.31;5007242;28;20657;-64
2023/04/17 10:42:20;;;;;;;9.77;8.60;;;;;;;15.46;57.29;100976.63;5006321;28;20210;-59
2023/04/17 10:44:51;;;;;;;11.38;9.27;;;;;;;15.93;56.45;100966.28;5009245;28;20203;-58
2023/04/17 10:47:22;;;;;;;10.50;9.40;;;;;;;16.27;55.13;100969.09;5004903;28;20223;-58
2023/04/17 10:49:52;;;;;;;10.30;9.25;;;;;;;16.45;54.62;100969.59;5007078;28;20202;-60
2023/04/17 10:52:38;;;;;;;11.52;8.45;;;;;;;16.38;54.22;100964.50;5005241;28;20239;-59
2023/04/17 10:55:08;;;;;;;10.75;8.88;;;;;;;16.50;53.88;100968.63;5012532;28;20706;-58
2023/04/17 10:57:55;;;;;;;10.27;9.23;;;;;;;16.53;53.69;100959.88;5013598;28;20728;-59
2023/04/17 11:00:36;;;;;;;11.95;8.45;;;;;;;16.32;53.87;100964.66;5013410;28;20211;-59
2023/04/17 11:03:05;;;;;;;10.70;9.02;;;;;;;16.14;54.45;100960.69;5013137;28;20207;-59
2023/04/17 11:05:35;;;;;;;9.90;8.60;;;;;;;15.96;55.26;100952.41;5013649;28;20199;-59
2023/04/17 11:08:03;;;;;;;12.73;9.25;;;;;;;15.99;55.47;100962.75;5013108;28;20210;-59
2023/04/17 11:10:35;;;;;;;11.23;8.57;;;;;;;16.13;55.01;100963.34;5011954;28;20211;-59
2023/04/17 11:13:03;;;;;;;13.95;8.57;;;;;;;16.28;54.78;100957.81;5012190;28;20215;-59
2023/04/17 11:15:33;;;;;;;10.00;8.13;;;;;;;16.49;54.22;100961.69;5012638;28;20215;-59
2023/04/17 11:18:03;;;;;;;9.57;8.63;;;;;;;17.06;53.00;100953.50;5013119;28;20203;-57
2023/04/17 11:20:33;;;;;;;9.57;8.57;;;;;;;17.42;51.47;100958.72;5011863;28;20290;-64
2023/04/17 11:23:01;;;;;;;10.88;8.30;;;;;;;17.56;51.29;100956.63;5011064;28;20243;-58
2023/04/17 11:25:32;;;;;;;10.80;8.20;;;;;;;17.47;51.06;100953.38;5013058;28;20215;-58
2023/04/17 11:28:02;;;;;;;9.82;7.70;;;;;;;17.14;51.09;100956.78;5010224;28;20285;-60